createdAt,value
2022-11-10T00:02:10.012Z,11.70
2022-11-10T00:04:37.935Z,11.70
2022-11-10T00:07:05.890Z,11.50
2022-11-10T00:09:35.251Z,11.60
2022-11-10T00:12:03.047Z,11.50
2022-11-10T00:14:48.423Z,11.40
2022-11-10T00:17:16.404Z,11.40
2022-11-10T00:19:44.238Z,11.40
2022-11-10T00:22:12.102Z,11.30
2022-11-10T00:24:41.335Z,11.30
2022-11-10T00:27:09.147Z,11.30
2022-11-10T00:29:37.015Z,11.40
2022-11-10T00:32:05.108Z,11.40
2022-11-10T00:34:33.018Z,11.40
2022-11-10T00:37:00.846Z,11.50
2022-11-10T00:39:28.723Z,11.40
2022-11-10T00:41:58.239Z,11.40
2022-11-10T00:44:26.208Z,11.40
2022-11-10T00:46:54.027Z,11.50
2022-11-10T00:49:21.856Z,11.50
2022-11-10T00:51:49.719Z,11.60
2022-11-10T00:54:17.586Z,11.60
2022-11-10T00:56:45.425Z,11.70
2022-11-10T00:59:14.589Z,11.70
2022-11-10T01:01:42.404Z,11.70
2022-11-10T01:04:10.255Z,11.60
2022-11-10T01:06:38.174Z,11.50
2022-11-10T01:09:06.088Z,11.50
2022-11-10T01:11:33.940Z,11.50
2022-11-10T01:14:01.787Z,11.50
2022-11-10T01:16:32.591Z,11.40
2022-11-10T01:19:02.627Z,11.30
2022-11-10T01:21:31.423Z,11.30
2022-11-10T01:23:59.627Z,11.20
2022-11-10T01:26:27.626Z,11.10
2022-11-10T01:28:55.475Z,10.90
2022-11-10T01:31:23.824Z,10.90
2022-11-10T01:33:52.999Z,11.00
2022-11-10T01:36:20.836Z,10.90
2022-11-10T01:38:48.673Z,10.80
2022-11-10T01:41:17.005Z,10.80
2022-11-10T01:43:44.872Z,10.80
2022-11-10T01:46:14.252Z,10.70
2022-11-10T01:48:46.701Z,10.70
2022-11-10T01:51:20.512Z,10.60
2022-11-10T01:53:51.526Z,10.60
2022-11-10T02:01:20.146Z,10.60
2022-11-10T02:03:51.390Z,10.60
2022-11-10T02:06:23.754Z,10.40
2022-11-10T02:08:52.260Z,10.40
2022-11-10T02:11:20.307Z,10.30
2022-11-10T02:13:48.705Z,10.20
2022-11-10T02:16:16.539Z,10.10
2022-11-10T02:18:44.394Z,10.10
2022-11-10T02:21:17.861Z,10.10
2022-11-10T02:23:48.203Z,10.00
2022-11-10T02:26:18.605Z,9.90
2022-11-10T02:28:46.437Z,9.90
2022-11-10T02:31:14.297Z,9.90
2022-11-10T02:33:42.147Z,9.70
2022-11-10T02:51:02.987Z,9.50
2022-11-10T02:53:30.823Z,9.60
2022-11-10T02:56:00.137Z,9.60
2022-11-10T02:58:28.027Z,9.50
2022-11-10T03:00:55.867Z,9.50
2022-11-10T03:03:24.199Z,9.40
2022-11-10T03:05:52.308Z,9.50
2022-11-10T03:08:20.137Z,9.40
2022-11-10T03:10:47.974Z,9.50
2022-11-10T03:13:17.156Z,9.50
2022-11-10T03:15:44.980Z,9.50
2022-11-10T03:18:12.864Z,9.50
2022-11-10T03:20:42.127Z,9.40
2022-11-10T03:23:10.039Z,9.30
2022-11-10T03:25:38.522Z,9.30
2022-11-10T03:28:06.396Z,9.20
2022-11-10T03:30:35.644Z,9.30
2022-11-10T03:33:03.517Z,9.40
2022-11-10T03:35:31.671Z,9.30
2022-11-10T03:37:59.566Z,9.20
2022-11-10T03:40:27.480Z,9.20
2022-11-10T03:42:55.332Z,9.10
2022-11-10T03:45:23.146Z,9.10
2022-11-10T03:47:52.409Z,9.20
2022-11-10T03:50:20.329Z,9.30
2022-11-10T03:52:48.377Z,9.30
2022-11-10T03:55:18.715Z,9.40
2022-11-10T03:57:46.637Z,9.40
2022-11-10T04:00:15.876Z,9.30
2022-11-10T04:02:43.757Z,9.20
2022-11-10T04:05:30.612Z,9.10
2022-11-10T04:08:17.757Z,9.00
2022-11-10T04:10:45.873Z,8.90
2022-11-10T04:13:31.526Z,9.00
2022-11-10T04:15:59.386Z,9.00
2022-11-10T04:18:29.425Z,8.90
2022-11-10T04:21:00.191Z,9.00
2022-11-10T04:23:30.674Z,9.10
2022-11-10T04:26:18.782Z,9.10
2022-11-10T04:28:48.259Z,9.10
2022-11-10T04:31:17.637Z,9.10
2022-11-10T04:33:46.161Z,9.00
2022-11-10T04:36:17.945Z,9.00
2022-11-10T04:38:46.562Z,8.90
2022-11-10T04:41:14.926Z,9.00
2022-11-10T04:43:43.364Z,8.90
2022-11-10T04:46:21.035Z,8.90
2022-11-10T04:48:48.895Z,8.90
2022-11-10T04:51:19.457Z,8.70
2022-11-10T04:53:47.395Z,8.70
2022-11-10T04:56:16.167Z,8.60
2022-11-10T04:58:44.549Z,8.60
2022-11-10T05:01:13.826Z,8.70
2022-11-10T05:03:41.931Z,8.70
2022-11-10T05:06:10.425Z,8.60
2022-11-10T05:08:41.097Z,8.60
2022-11-10T05:11:10.044Z,8.50
2022-11-10T05:13:38.150Z,8.40
2022-11-10T05:16:06.851Z,8.30
2022-11-10T05:18:34.805Z,8.30
2022-11-10T05:21:02.676Z,8.30
2022-11-10T05:23:39.558Z,8.30
2022-11-10T05:26:10.853Z,8.30
2022-11-10T05:28:39.157Z,8.30
2022-11-10T05:31:07.756Z,8.30
2022-11-10T05:33:36.836Z,8.20
2022-11-10T05:36:05.779Z,8.30
2022-11-10T05:38:34.404Z,8.20
2022-11-10T05:41:04.354Z,8.20
2022-11-10T05:43:33.571Z,8.30
2022-11-10T05:46:02.263Z,8.30
2022-11-10T05:48:30.496Z,8.40
2022-11-10T05:50:58.354Z,8.50
2022-11-10T05:53:26.774Z,8.50
2022-11-10T05:55:54.624Z,8.40
2022-11-10T05:58:22.464Z,8.30
2022-11-10T06:00:51.693Z,8.20
2022-11-10T06:03:21.131Z,8.10
2022-11-10T06:05:49.651Z,8.10
2022-11-10T06:08:17.999Z,8.00
2022-11-10T06:10:45.987Z,8.10
2022-11-10T06:13:14.175Z,8.30
2022-11-10T06:15:46.096Z,8.40
2022-11-10T06:18:18.431Z,8.30
2022-11-10T06:20:47.086Z,8.30
2022-11-10T06:23:15.658Z,8.20
2022-11-10T06:25:43.534Z,8.00
2022-11-10T06:28:11.691Z,7.90
2022-11-10T06:30:39.919Z,7.80
2022-11-10T06:33:07.929Z,7.80
2022-11-10T06:35:37.088Z,7.60
2022-11-10T06:38:06.601Z,7.50
2022-11-10T06:40:34.973Z,7.40
2022-11-10T06:43:03.009Z,7.40
2022-11-10T06:45:30.957Z,7.40
2022-11-10T06:48:02.586Z,7.50
2022-11-10T06:50:30.696Z,7.60
2022-11-10T06:53:01.053Z,7.50
2022-11-10T06:55:29.557Z,7.50
2022-11-10T06:57:57.540Z,7.50
2022-11-10T07:00:25.685Z,7.70
2022-11-10T07:03:00.648Z,7.50
2022-11-10T07:05:28.523Z,7.40
2022-11-10T07:07:56.384Z,7.50
2022-11-10T07:10:25.607Z,7.60
2022-11-10T07:12:58.366Z,7.60
2022-11-10T07:15:26.240Z,7.80
2022-11-10T07:17:54.122Z,7.70
2022-11-10T07:20:22.286Z,7.60
2022-11-10T07:22:50.449Z,7.50
2022-11-10T07:25:18.297Z,7.50
2022-11-10T07:27:47.482Z,7.60
2022-11-10T07:30:15.449Z,7.70
2022-11-10T07:32:43.260Z,7.80
2022-11-10T07:35:11.091Z,7.70
2022-11-10T07:37:38.934Z,7.80
2022-11-10T07:40:08.094Z,7.70
2022-11-10T07:42:40.686Z,7.70
2022-11-10T07:45:11.025Z,7.80
2022-11-10T07:47:38.851Z,7.90
2022-11-10T07:50:07.748Z,8.10
2022-11-10T07:52:35.789Z,8.20
2022-11-10T07:55:04.306Z,8.20
2022-11-10T07:57:32.248Z,8.30
2022-11-10T08:00:00.173Z,8.40
2022-11-10T08:02:29.396Z,8.40
2022-11-10T08:04:57.231Z,8.50
2022-11-10T08:07:25.191Z,8.50
2022-11-10T08:09:53.194Z,8.50
2022-11-10T08:12:21.073Z,8.60
2022-11-10T08:14:48.900Z,8.70
2022-11-10T08:17:16.749Z,8.80
2022-11-10T08:19:45.987Z,8.90
2022-11-10T08:22:13.815Z,9.00
2022-11-10T08:24:41.683Z,9.10
2022-11-10T08:27:09.649Z,9.20
2022-11-10T08:29:37.560Z,9.30
2022-11-10T08:32:05.945Z,9.40
2022-11-10T08:34:34.064Z,9.70
2022-11-10T08:37:03.238Z,9.80
2022-11-10T08:39:39.117Z,9.90
2022-11-10T08:42:07.497Z,9.90
2022-11-10T08:44:35.418Z,10.00
2022-11-10T08:47:03.294Z,10.20
2022-11-10T08:49:31.142Z,10.30
2022-11-10T08:51:58.968Z,10.40
2022-11-10T08:54:28.163Z,10.50
2022-11-10T08:56:56.040Z,10.50
2022-11-10T08:59:23.915Z,10.70
2022-11-10T09:01:51.725Z,10.70
2022-11-10T09:04:19.626Z,10.70
2022-11-10T09:06:47.494Z,10.90
2022-11-10T09:09:15.400Z,11.20
2022-11-10T09:11:44.553Z,11.40
2022-11-10T09:14:12.483Z,11.60
2022-11-10T09:16:40.346Z,11.90
2022-11-10T09:19:08.290Z,12.30
2022-11-10T09:21:36.155Z,12.50
2022-11-10T09:24:04.132Z,12.90
2022-11-10T09:26:33.769Z,13.20
2022-11-10T09:29:02.980Z,13.40
2022-11-10T09:31:30.820Z,13.70
2022-11-10T09:33:59.229Z,13.90
2022-11-10T09:36:27.075Z,13.90
2022-11-10T09:38:54.927Z,14.10
2022-11-10T09:41:22.849Z,14.20
2022-11-10T09:44:02.468Z,14.30
2022-11-10T09:46:37.592Z,14.50
2022-11-10T09:49:12.815Z,14.60
2022-11-10T09:51:48.168Z,14.90
2022-11-10T09:54:28.571Z,15.00
2022-11-10T09:57:01.155Z,15.10
2022-11-10T09:59:32.205Z,15.10
2022-11-10T10:02:05.847Z,15.40
2022-11-10T10:04:56.171Z,15.60
2022-11-10T10:07:27.883Z,15.60
2022-11-10T10:10:03.170Z,15.90
2022-11-10T10:12:49.820Z,16.40
2022-11-10T10:15:25.835Z,16.30
2022-11-10T10:18:06.362Z,16.40
2022-11-10T10:20:43.065Z,16.40
2022-11-10T10:23:40.388Z,16.80
2022-11-10T10:26:14.216Z,17.00
2022-11-10T10:28:46.229Z,16.80
2022-11-10T10:31:19.080Z,17.10
2022-11-10T10:33:49.534Z,17.30
2022-11-10T10:36:20.501Z,17.50
2022-11-10T10:38:52.703Z,17.60
2022-11-10T10:41:25.955Z,17.40
2022-11-10T10:43:56.531Z,17.40
2022-11-10T10:46:28.397Z,17.30
2022-11-10T10:49:28.699Z,17.30
2022-11-10T10:52:05.202Z,17.40
2022-11-10T10:54:34.692Z,17.60
2022-11-10T10:57:17.248Z,17.70
2022-11-10T10:59:45.286Z,17.80
2022-11-10T11:02:26.454Z,17.70
2022-11-10T11:05:12.737Z,17.60
2022-11-10T11:07:40.696Z,17.80
2022-11-10T11:10:23.360Z,17.80
2022-11-10T11:12:51.336Z,18.00
2022-11-10T11:17:59.719Z,18.60
2022-11-10T11:23:08.862Z,19.40
2022-11-10T11:25:42.115Z,19.60
2022-11-10T11:28:20.346Z,19.40
2022-11-10T11:30:59.388Z,19.20
2022-11-10T11:33:36.825Z,18.90
2022-11-10T11:36:15.531Z,18.40
2022-11-10T11:38:54.099Z,18.30
2022-11-10T11:41:35.976Z,18.40
2022-11-10T11:44:33.063Z,18.70
2022-11-10T11:47:10.233Z,19.00
2022-11-10T11:49:51.106Z,19.40
2022-11-10T11:52:26.238Z,19.50
2022-11-10T11:55:17.277Z,19.40
2022-11-10T11:58:06.543Z,19.30
2022-11-10T12:00:45.040Z,19.30
2022-11-10T12:03:32.334Z,19.10
2022-11-10T12:06:18.585Z,19.00
2022-11-10T12:08:57.065Z,18.50
2022-11-10T12:11:35.659Z,18.10
2022-11-10T12:14:13.019Z,17.80
2022-11-10T12:16:45.079Z,17.50
2022-11-10T12:19:25.794Z,17.40
2022-11-10T12:21:59.503Z,17.30
2022-11-10T12:24:45.538Z,17.00
2022-11-10T12:27:17.244Z,17.00
2022-11-10T12:29:50.921Z,16.80
2022-11-10T12:32:24.473Z,16.70
2022-11-10T12:34:56.413Z,16.60
2022-11-10T12:37:30.115Z,16.30
2022-11-10T12:40:04.667Z,16.30
2022-11-10T12:42:33.942Z,16.20
2022-11-10T12:45:03.427Z,16.10
2022-11-10T12:47:37.881Z,16.10
2022-11-10T12:50:21.589Z,15.80
2022-11-10T12:52:55.259Z,15.60
2022-11-10T12:55:32.848Z,15.60
2022-11-10T12:58:01.615Z,15.50
2022-11-10T13:00:32.399Z,15.40
2022-11-10T13:03:00.814Z,15.40
2022-11-10T13:05:40.889Z,15.30
2022-11-10T13:08:27.603Z,15.30
2022-11-10T13:11:00.604Z,15.20
2022-11-10T13:13:29.592Z,15.00
2022-11-10T13:15:58.551Z,14.90
2022-11-10T13:18:53.967Z,14.90
2022-11-10T13:22:09.798Z,14.70
2022-11-10T13:24:39.500Z,14.70
2022-11-10T13:27:12.704Z,14.50
2022-11-10T13:29:56.778Z,14.50
2022-11-10T13:32:30.610Z,14.40
2022-11-10T13:35:31.703Z,14.40
2022-11-10T13:37:59.833Z,14.30
2022-11-10T13:40:36.484Z,14.20
2022-11-10T13:43:25.624Z,14.20
2022-11-10T13:46:06.986Z,14.10
2022-11-10T13:49:17.783Z,14.20
2022-11-10T13:51:51.695Z,14.20
2022-11-10T13:54:45.679Z,14.20
2022-11-10T13:57:30.215Z,14.20
2022-11-10T14:00:01.712Z,14.20
2022-11-10T14:02:51.489Z,14.20
2022-11-10T14:06:04.466Z,14.10
2022-11-10T14:08:50.042Z,14.10
2022-11-10T14:11:23.288Z,14.10
2022-11-10T14:13:57.857Z,14.10
2022-11-10T14:16:29.627Z,14.10
2022-11-10T14:19:01.826Z,14.10
2022-11-10T14:21:37.164Z,14.00
2022-11-10T14:24:13.831Z,14.00
2022-11-10T14:32:02.180Z,14.00
2022-11-10T14:34:31.251Z,14.00
2022-11-10T14:37:00.800Z,13.90
2022-11-10T14:39:32.810Z,13.80
2022-11-10T14:42:03.445Z,13.80
2022-11-10T14:44:33.086Z,13.80
2022-11-10T14:47:26.865Z,13.80
2022-11-10T14:50:15.822Z,13.80
2022-11-10T14:52:47.781Z,13.80
2022-11-10T14:55:19.031Z,13.70
2022-11-10T14:57:52.894Z,13.70
2022-11-10T15:00:26.235Z,13.70
2022-11-10T15:02:58.211Z,13.70
2022-11-10T15:05:26.471Z,13.70
2022-11-10T15:07:56.595Z,13.70
2022-11-10T15:10:26.572Z,13.60
2022-11-10T15:13:05.376Z,13.60
2022-11-10T15:15:33.272Z,13.50
2022-11-10T15:18:02.518Z,13.50
2022-11-10T15:20:33.999Z,13.40
2022-11-10T15:23:03.832Z,13.40
2022-11-10T15:25:37.770Z,13.20
2022-11-10T15:28:14.852Z,13.10
2022-11-10T15:30:50.947Z,13.10
2022-11-10T15:33:28.885Z,13.00
2022-11-10T15:36:14.141Z,12.90
2022-11-10T15:38:42.092Z,12.90
2022-11-10T15:41:15.650Z,12.90
2022-11-10T15:43:43.501Z,12.90
2022-11-10T15:46:18.249Z,12.90
2022-11-10T15:48:50.092Z,12.80
2022-11-10T15:51:25.682Z,12.80
2022-11-10T15:53:55.259Z,12.80
2022-11-10T15:56:25.274Z,12.70
2022-11-10T15:58:59.244Z,12.60
2022-11-10T16:01:28.701Z,12.60
2022-11-10T16:03:58.044Z,12.50
2022-11-10T16:06:26.790Z,12.40
2022-11-10T16:08:54.809Z,12.40
2022-11-10T16:11:23.761Z,12.40
2022-11-10T16:13:53.022Z,12.40
2022-11-10T16:16:23.771Z,12.50
2022-11-10T16:18:52.466Z,12.40
2022-11-10T16:21:23.016Z,12.20
2022-11-10T16:23:51.322Z,12.20
2022-11-10T16:26:22.114Z,12.10
2022-11-10T16:28:50.742Z,12.00
2022-11-10T16:31:21.895Z,11.90
2022-11-10T16:33:50.657Z,11.80
2022-11-10T16:36:25.839Z,11.80
2022-11-10T16:38:54.179Z,11.80
2022-11-10T16:41:23.657Z,11.80
2022-11-10T16:43:51.706Z,11.80
2022-11-10T16:46:22.342Z,11.70
2022-11-10T16:48:52.039Z,11.60
2022-11-10T16:51:28.606Z,11.50
2022-11-10T16:53:56.622Z,11.40
2022-11-10T16:56:26.719Z,11.30
2022-11-10T16:58:54.904Z,11.20
2022-11-10T17:01:25.875Z,11.30
2022-11-10T17:18:51.453Z,11.00
2022-11-10T17:21:20.153Z,10.80
2022-11-10T17:23:49.412Z,10.80
2022-11-10T17:26:19.149Z,10.90
2022-11-10T17:28:47.002Z,10.90
2022-11-10T17:31:15.999Z,10.90
2022-11-10T17:33:44.083Z,10.90
2022-11-10T17:36:15.439Z,10.80
2022-11-10T17:38:44.170Z,10.60
2022-11-10T17:48:42.587Z,10.30
2022-11-10T17:51:14.160Z,10.40
2022-11-10T17:53:43.903Z,10.20
2022-11-10T17:56:11.776Z,10.10
2022-11-10T17:58:40.968Z,10.00
2022-11-10T18:01:14.593Z,10.10
2022-11-10T18:03:42.443Z,10.10
2022-11-10T18:06:14.544Z,10.10
2022-11-10T18:08:42.535Z,10.10
2022-11-10T18:11:11.979Z,10.00
2022-11-10T18:13:42.890Z,10.00
2022-11-10T18:16:12.750Z,9.90
2022-11-10T18:18:40.807Z,9.80
2022-11-10T18:21:11.151Z,9.80
2022-11-10T18:23:39.020Z,9.70
2022-11-10T18:26:08.434Z,9.70
2022-11-10T18:28:37.016Z,9.70
2022-11-10T18:31:10.086Z,9.60
2022-11-10T18:33:38.196Z,9.70
2022-11-10T18:36:06.662Z,9.60
2022-11-10T18:38:34.487Z,9.50
2022-11-10T18:41:26.557Z,9.40
2022-11-10T18:43:54.489Z,9.40
2022-11-10T18:46:23.768Z,9.50
2022-11-10T18:48:51.705Z,9.50
2022-11-10T18:51:19.835Z,9.50
2022-11-10T18:53:47.691Z,9.60
2022-11-10T18:56:15.518Z,9.50
2022-11-10T18:58:43.569Z,9.40
2022-11-10T19:01:12.592Z,9.40
2022-11-10T19:03:42.725Z,9.50
2022-11-10T19:06:12.428Z,9.60
2022-11-10T19:08:40.372Z,9.60
2022-11-10T19:11:09.568Z,9.60
2022-11-10T19:13:38.215Z,9.60
2022-11-10T19:16:07.647Z,9.60
2022-11-10T19:18:35.569Z,9.60
2022-11-10T19:21:07.993Z,9.60
2022-11-10T19:23:36.539Z,9.40
2022-11-10T19:26:06.478Z,9.20
2022-11-10T19:28:34.426Z,9.20
2022-11-10T19:31:02.412Z,9.00
2022-11-10T19:33:31.160Z,8.80
2022-11-10T19:36:03.707Z,8.70
2022-11-10T19:38:33.505Z,8.60
2022-11-10T19:41:04.913Z,8.60
2022-11-10T19:43:32.922Z,8.60
2022-11-10T19:46:02.835Z,8.50
2022-11-10T19:48:31.364Z,8.40
2022-11-10T19:51:00.078Z,8.40
2022-11-10T19:53:28.692Z,8.40
2022-11-10T19:56:04.236Z,8.20
2022-11-10T19:58:32.164Z,8.10
2022-11-10T20:01:01.953Z,8.20
2022-11-10T20:03:30.570Z,8.30
2022-11-10T20:05:59.710Z,8.40
2022-11-10T20:08:28.213Z,8.40
2022-11-10T20:10:59.425Z,8.50
2022-11-10T20:13:28.619Z,8.40
2022-11-10T20:15:56.646Z,8.30
2022-11-10T20:18:24.728Z,8.30
2022-11-10T20:20:52.606Z,8.20
2022-11-10T20:23:20.670Z,8.20
2022-11-10T20:25:48.766Z,8.20
2022-11-10T20:28:16.576Z,8.10
2022-11-10T20:30:45.840Z,7.90
2022-11-10T20:33:13.794Z,7.80
2022-11-10T20:35:43.389Z,7.60
2022-11-10T20:38:11.846Z,7.60
2022-11-10T20:40:44.822Z,7.70
2022-11-10T20:43:14.704Z,7.70
2022-11-10T20:45:42.810Z,7.60
2022-11-10T20:48:12.041Z,7.70
2022-11-10T20:50:41.484Z,7.90
2022-11-10T20:53:09.412Z,7.80
2022-11-10T20:55:52.993Z,7.70
2022-11-10T20:58:21.560Z,7.60
2022-11-10T21:00:49.421Z,7.60
2022-11-10T21:03:18.653Z,7.60
2022-11-10T21:05:47.126Z,7.60
2022-11-10T21:08:14.982Z,7.60
2022-11-10T21:10:42.804Z,7.60
2022-11-10T21:13:09.714Z,7.60
2022-11-10T21:15:40.117Z,7.40
2022-11-10T21:18:08.032Z,7.30
2022-11-10T21:20:37.235Z,7.30
2022-11-10T21:23:05.076Z,7.20
2022-11-10T21:25:32.915Z,7.20
2022-11-10T21:28:02.349Z,7.30
2022-11-10T21:30:30.194Z,7.20
2022-11-10T21:32:58.052Z,7.30
2022-11-10T21:35:26.078Z,7.30
2022-11-10T21:37:56.178Z,7.40
2022-11-10T21:40:25.179Z,7.50
2022-11-10T21:42:55.535Z,7.40
2022-11-10T21:45:23.374Z,7.30
2022-11-10T21:47:51.238Z,7.20
2022-11-10T21:50:19.868Z,7.20
2022-11-10T21:52:47.715Z,7.20
2022-11-10T21:55:17.040Z,7.30
2022-11-10T21:57:44.911Z,7.30
2022-11-10T22:00:14.104Z,7.20
2022-11-10T22:02:41.958Z,7.10
2022-11-10T22:05:10.090Z,7.20
2022-11-10T22:07:39.804Z,7.20
2022-11-10T22:10:37.580Z,7.20
2022-11-10T22:13:24.505Z,7.00
2022-11-10T22:16:21.592Z,6.90
2022-11-10T22:18:49.458Z,7.10
2022-11-10T22:21:17.311Z,7.10
2022-11-10T22:24:02.799Z,7.10
2022-11-10T22:26:30.648Z,7.10
2022-11-10T22:28:59.846Z,7.10
2022-11-10T22:31:27.746Z,7.20
2022-11-10T22:33:55.593Z,7.20
2022-11-10T22:36:23.450Z,7.10
2022-11-10T22:38:51.326Z,7.00
2022-11-10T22:41:36.759Z,7.10
2022-11-10T22:44:06.583Z,7.10
2022-11-10T22:46:36.163Z,7.20
2022-11-10T22:49:07.052Z,7.20
2022-11-10T22:51:35.754Z,7.20
2022-11-10T22:54:04.499Z,7.30
2022-11-10T22:56:33.939Z,7.30
2022-11-10T22:59:01.898Z,7.10
2022-11-10T23:01:31.252Z,7.10
2022-11-10T23:03:59.577Z,7.20
2022-11-10T23:06:28.063Z,7.00
2022-11-10T23:08:56.441Z,6.80
2022-11-10T23:11:26.713Z,6.80
2022-11-10T23:13:54.566Z,7.00
2022-11-10T23:16:25.680Z,7.10
2022-11-10T23:18:56.296Z,7.10
2022-11-10T23:21:26.107Z,7.00
2022-11-10T23:23:54.420Z,6.90
2022-11-10T23:26:24.975Z,7.00
2022-11-10T23:28:54.181Z,7.00
2022-11-10T23:31:24.026Z,6.90
2022-11-10T23:33:55.154Z,6.80
2022-11-10T23:36:24.592Z,6.70
2022-11-10T23:38:52.840Z,6.80
2022-11-10T23:41:23.449Z,6.70
2022-11-10T23:43:51.371Z,6.90
2022-11-10T23:46:19.215Z,6.80
2022-11-10T23:48:47.164Z,6.80
2022-11-10T23:51:16.416Z,6.70
2022-11-10T23:53:44.300Z,6.80
2022-11-10T23:56:13.694Z,6.80
2022-11-10T23:58:41.706Z,6.70
